Time;durP1;ratioP1;P1;durP2;ratioP2;P2;SDS_P1;SDS_P2;PMS_P1;PMS_P2;Temp;Humidity;BMP_temperature;BMP_pressure;BME280_temperature;BME280_humidity;BME280_pressure;Samples;Min_cycle;Max_cycle;Signal;HPM_P1;HPM_P2
2022/11/07 00:00:50;;;;;;;13.52;3.35;;;12.50;99.90;;;11.74;100.00;100725.63;4090310;29;20027;-83
2022/11/07 00:02:51;;;;;;;18.90;3.33;;;12.50;99.90;;;11.68;100.00;100738.44;4090435;29;20036;-82
2022/11/07 00:04:51;;;;;;;22.00;3.28;;;12.50;99.90;;;11.67;100.00;100741.28;4089260;29;20431;-82
2022/11/07 00:06:52;;;;;;;18.02;2.67;;;12.50;99.90;;;11.63;100.00;100732.00;4090301;29;20067;-82
2022/11/07 00:08:54;;;;;;;13.80;3.03;;;12.40;99.90;;;11.66;100.00;100734.31;4090300;29;20031;-82
2022/11/07 00:10:55;;;;;;;21.55;3.63;;;12.40;99.90;;;11.66;100.00;100739.59;4090418;29;20032;-82
2022/11/07 00:12:56;;;;;;;16.80;3.83;;;12.50;99.90;;;11.73;100.00;100751.22;4090268;29;20095;-82
2022/11/07 00:14:57;;;;;;;15.25;1.95;;;12.50;99.90;;;11.79;100.00;100744.44;4090200;29;20024;-82
2022/11/07 00:16:58;;;;;;;15.13;3.10;;;12.60;99.90;;;11.88;100.00;100738.19;4089202;29;20055;-82
2022/11/07 00:18:59;;;;;;;14.45;2.50;;;12.70;99.90;;;12.02;100.00;100738.34;4073276;29;20048;-82
2022/11/07 00:21:08;;;;;;;17.13;2.88;;;12.80;99.90;;;12.12;100.00;100744.31;4089093;29;20423;-82
2022/11/07 00:23:09;;;;;;;19.35;2.47;;;12.90;99.90;;;12.30;100.00;100740.66;4088985;29;20031;-81
2022/11/07 00:25:10;;;;;;;16.20;2.95;;;13.00;99.90;;;12.32;100.00;100744.78;4096212;29;20046;-81
2022/11/07 00:27:11;;;;;;;19.17;3.05;;;13.00;99.90;;;12.35;100.00;100747.09;4090154;29;20024;-82
2022/11/07 00:29:15;;;;;;;16.42;2.55;;;13.10;99.90;;;12.41;100.00;100745.59;4104501;29;20419;-82
2022/11/07 00:31:17;;;;;;;14.35;2.15;;;13.10;99.90;;;12.40;100.00;100730.69;4104382;28;20110;-82
2022/11/07 00:33:17;;;;;;;15.48;2.92;;;13.20;99.90;;;12.45;100.00;100745.09;4088881;29;20032;-81
2022/11/07 00:35:18;;;;;;;15.07;2.55;;;13.20;99.90;;;12.49;100.00;100758.81;4073042;29;20076;-81
2022/11/07 00:37:19;;;;;;;20.25;3.17;;;13.30;99.90;;;12.53;100.00;100768.06;4089992;29;20400;-81
2022/11/07 00:39:20;;;;;;;14.07;2.50;;;13.30;99.90;;;12.59;100.00;100770.88;4089976;29;20055;-82
2022/11/07 00:41:22;;;;;;;18.52;2.78;;;13.30;99.90;;;12.56;100.00;100765.09;4090248;29;20020;-82
2022/11/07 00:43:23;;;;;;;13.75;2.13;;;13.30;99.90;;;12.47;100.00;100753.69;4072678;29;20031;-82
2022/11/07 00:45:24;;;;;;;16.17;2.63;;;13.30;99.90;;;12.48;100.00;100757.16;4090512;29;20391;-82
2022/11/07 00:47:24;;;;;;;17.00;2.22;;;13.20;99.90;;;12.43;100.00;100762.13;4088223;29;20032;-81
2022/11/07 00:49:25;;;;;;;15.82;2.08;;;13.20;99.90;;;12.35;100.00;100748.91;4089831;29;20484;-81
2022/11/07 00:51:27;;;;;;;12.43;2.55;;;13.10;99.90;;;12.27;100.00;100748.91;4089934;29;20031;-82
2022/11/07 00:53:28;;;;;;;16.15;2.78;;;13.00;99.90;;;12.17;100.00;100755.22;4072647;29;20021;-82
2022/11/07 00:55:32;;;;;;;17.48;2.63;;;13.00;99.90;;;12.06;100.00;100744.97;4089816;29;20035;-82
2022/11/07 00:57:32;;;;;;;9.82;2.40;;;12.90;99.90;;;12.02;100.00;100759.50;4072934;29;20035;-82
2022/11/07 00:59:33;;;;;;;11.45;1.92;;;12.80;99.90;;;11.97;100.00;100753.91;4089455;29;20039;-82
2022/11/07 01:01:34;;;;;;;12.30;2.10;;;12.80;99.90;;;11.96;100.00;100757.50;4088415;29;20054;-83
2022/11/07 01:06:01;;;;;;;13.32;2.47;;;12.70;99.90;;;11.88;100.00;100767.25;4075115;29;20553;-82
2022/11/07 01:08:03;;;;;;;11.50;1.60;;;12.70;99.90;;;11.84;100.00;100773.84;4089300;29;20056;-82
2022/11/07 01:10:06;;;;;;;13.40;2.35;;;12.60;99.90;;;11.80;100.00;100776.00;4088528;29;20431;-82
2022/11/07 01:12:07;;;;;;;17.02;2.60;;;12.60;99.90;;;11.82;100.00;100776.69;4089530;29;20079;-82
2022/11/07 01:14:10;;;;;;;14.50;3.33;;;12.60;99.90;;;11.83;100.00;100783.59;4089431;29;20090;-82
2022/11/07 01:16:12;;;;;;;12.77;2.92;;;12.60;99.90;;;11.81;100.00;100785.59;4089379;29;20475;-82
2022/11/07 01:18:12;;;;;;;19.17;2.80;;;12.60;99.90;;;11.80;100.00;100781.28;4088289;29;20036;-82
2022/11/07 01:20:14;;;;;;;16.35;3.08;;;12.60;99.90;;;11.93;100.00;100781.63;4089312;29;20087;-83
2022/11/07 01:22:14;;;;;;;17.73;2.88;;;12.70;99.90;;;12.01;100.00;100792.22;4088092;29;20036;-82
2022/11/07 01:24:16;;;;;;;13.30;2.50;;;12.80;99.90;;;12.05;100.00;100779.50;4089206;29;21543;-82
2022/11/07 01:26:17;;;;;;;18.42;3.15;;;12.80;99.90;;;12.15;100.00;100802.16;4072285;29;20032;-82
2022/11/07 01:28:18;;;;;;;15.50;3.10;;;12.90;99.90;;;12.19;100.00;100792.06;4089153;29;20028;-82
2022/11/07 01:30:19;;;;;;;18.65;3.97;;;13.00;99.90;;;12.27;100.00;100778.84;4087589;29;20059;-82
2022/11/07 01:32:20;;;;;;;15.55;4.00;;;13.00;99.90;;;12.41;100.00;100788.75;4071898;29;20032;-82
2022/11/07 01:34:20;;;;;;;18.77;4.03;;;13.10;99.90;;;12.49;100.00;100785.25;4088079;29;20036;-82
2022/11/07 01:36:21;;;;;;;16.08;2.58;;;13.20;99.90;;;12.48;100.00;100784.47;4088180;29;20063;-82
2022/11/07 01:38:22;;;;;;;16.38;3.25;;;13.20;99.90;;;12.47;100.00;100776.66;4088952;29;20415;-82
2022/11/07 01:40:23;;;;;;;17.33;2.85;;;13.20;99.90;;;12.47;100.00;100779.31;4087704;29;20028;-82
2022/11/07 01:42:24;;;;;;;17.30;4.22;;;13.20;99.90;;;12.48;100.00;100778.34;4088991;29;20110;-82
2022/11/07 01:44:25;;;;;;;14.30;2.75;;;13.20;99.90;;;12.49;100.00;100774.66;4087427;29;20027;-82
2022/11/07 01:46:35;;;;;;;17.02;3.00;;;13.30;99.90;;;12.47;100.00;100779.31;4084209;29;20090;-82
2022/11/07 01:48:37;;;;;;;16.02;2.35;;;13.30;99.90;;;12.53;100.00;100789.22;4087560;29;20100;-82
2022/11/07 01:50:38;;;;;;;17.13;2.55;;;13.30;99.90;;;12.50;100.00;100778.97;4087762;29;20048;-82
2022/11/07 01:52:42;;;;;;;21.60;4.50;;;13.30;99.90;;;12.52;100.00;100780.47;4087449;29;20023;-82
2022/11/07 01:55:07;;;;;;;13.82;3.63;;;13.30;99.90;;;12.55;100.00;100779.28;4090488;29;20035;-82
2022/11/07 01:57:22;;;;;;;13.00;2.38;;;13.30;99.90;;;12.52;100.00;100779.63;4079159;29;20480;-82
2022/11/07 01:59:25;;;;;;;;;;;13.30;99.90;;;12.45;100.00;100778.66;4087044;29;20031;-82
2022/11/07 02:01:26;;;;;;;17.60;3.53;;;13.30;99.90;;;12.44;100.00;100769.91;4087374;29;20453;-82
2022/11/07 02:03:27;;;;;;;18.55;3.05;;;13.30;99.90;;;12.57;100.00;100772.03;4087594;29;20139;-82
2022/11/07 02:05:58;;;;;;;17.98;2.60;;;13.30;99.90;;;12.52;100.00;100774.34;4088541;29;20036;-82
2022/11/07 02:08:03;;;;;;;16.63;2.83;;;13.30;99.90;;;12.51;100.00;100767.41;4084670;29;20043;-82
2022/11/07 02:10:05;;;;;;;17.92;3.50;;;13.30;99.90;;;12.51;100.00;100760.31;4087574;29;20067;-82
2022/11/07 02:12:06;;;;;;;13.07;2.15;;;13.30;99.90;;;12.55;100.00;100768.72;4071563;29;20039;-82
2022/11/07 02:14:12;;;;;;;17.67;2.83;;;13.30;99.90;;;12.50;100.00;100756.00;4087139;29;20023;-82
2022/11/07 02:16:14;;;;;;;16.55;2.83;;;13.30;99.90;;;12.53;100.00;100768.06;4087440;29;20031;-82
2022/11/07 02:18:15;;;;;;;20.00;2.80;;;13.30;99.90;;;12.54;100.00;100756.50;4088455;29;20027;-82
2022/11/07 02:20:17;;;;;;;18.30;3.55;;;13.30;99.90;;;12.53;100.00;100762.78;4094206;29;20027;-81
2022/11/07 02:22:55;;;;;;;14.45;3.08;;;13.30;99.90;;;12.56;100.00;100765.91;4090483;29;20027;-81
2022/11/07 02:24:59;;;;;;;14.77;2.95;;;13.30;99.90;;;12.47;100.00;100760.78;4071383;29;20075;-82
2022/11/07 02:27:08;;;;;;;12.32;2.58;;;13.30;99.90;;;12.49;100.00;100769.38;4102920;29;20088;-81
2022/11/07 02:29:11;;;;;;;21.70;3.05;;;13.30;99.90;;;12.48;100.00;100771.22;4102346;29;20031;-81
2022/11/07 02:31:12;;;;;;;17.23;3.45;;;13.30;99.90;;;12.48;100.00;100773.03;4102725;28;20043;-82
2022/11/07 02:33:22;;;;;;;25.38;3.30;;;13.30;99.90;;;12.52;100.00;100779.63;4103041;29;20051;-82
2022/11/07 02:35:40;;;;;;;16.52;3.22;;;13.30;99.90;;;12.51;100.00;100783.28;4102823;29;20082;-81
2022/11/07 02:37:41;;;;;;;23.05;4.72;;;13.30;99.90;;;12.67;100.00;100776.13;4088669;29;20020;-81
2022/11/07 02:39:42;;;;;;;16.70;3.70;;;13.40;99.90;;;12.59;100.00;100772.69;4088462;29;20084;-82
2022/11/07 02:41:43;;;;;;;18.20;4.20;;;13.40;99.90;;;12.60;100.00;100775.16;4103012;29;20135;-82
2022/11/07 02:43:57;;;;;;;20.88;4.38;;;13.30;99.90;;;12.55;100.00;100784.59;4102744;29;20027;-82
2022/11/07 02:46:02;;;;;;;24.13;4.18;;;13.30;99.90;;;12.55;100.00;100790.72;4095073;29;20080;-82
2022/11/07 02:48:04;;;;;;;16.00;3.50;;;13.30;99.90;;;12.52;100.00;100792.88;4086876;29;20039;-82
2022/11/07 02:50:11;;;;;;;28.58;4.40;;;13.30;99.90;;;12.52;100.00;100782.28;4072125;29;20028;-81
2022/11/07 02:52:11;;;;;;;22.67;5.10;;;13.30;99.90;;;12.46;100.00;100775.00;4087139;29;20035;-82
2022/11/07 02:54:12;;;;;;;21.60;3.97;;;13.30;99.90;;;12.52;100.00;100783.09;4087283;29;20503;-82
2022/11/07 02:56:13;;;;;;;18.40;3.72;;;13.30;99.90;;;12.51;100.00;100778.00;4072506;29;20047;-81
2022/11/07 02:58:14;;;;;;;24.70;3.42;;;13.30;99.90;;;12.47;100.00;100777.50;4070966;29;20036;-81
2022/11/07 03:00:15;;;;;;;18.90;3.72;;;13.30;99.90;;;12.47;100.00;100780.16;4072105;29;20088;-81
2022/11/07 03:02:16;;;;;;;17.83;4.00;;;13.20;99.90;;;12.49;100.00;100779.97;4087120;29;20039;-82
2022/11/07 03:04:17;;;;;;;18.73;3.25;;;13.20;99.90;;;12.46;100.00;100780.31;4072644;29;20036;-81
2022/11/07 03:06:24;;;;;;;22.27;4.25;;;13.20;99.90;;;12.42;100.00;100773.72;4072145;29;20024;-82
2022/11/07 03:08:25;;;;;;;31.58;5.32;;;13.20;99.90;;;12.44;100.00;100782.28;4086925;29;20032;-81
2022/11/07 03:10:25;;;;;;;21.45;4.07;;;13.20;99.90;;;12.40;100.00;100786.25;4087661;29;20079;-82
2022/11/07 03:12:26;;;;;;;21.20;3.15;;;13.10;99.90;;;12.32;100.00;100778.34;4074327;29;20035;-82
2022/11/07 03:14:27;;;;;;;25.70;3.53;;;13.10;99.90;;;12.38;100.00;100782.97;4089619;29;20542;-82
2022/11/07 03:16:28;;;;;;;17.80;3.40;;;13.10;99.90;;;12.30;100.00;100775.88;4075847;29;20032;-82
2022/11/07 03:18:29;;;;;;;23.25;3.65;;;13.10;99.90;;;12.30;100.00;100785.63;4089896;29;20035;-82
2022/11/07 03:20:30;;;;;;;30.60;5.80;;;13.10;99.90;;;12.23;100.00;100768.75;4074961;29;20040;-82
2022/11/07 03:22:30;;;;;;;27.15;4.65;;;13.10;99.90;;;12.24;100.00;100773.06;4075160;29;20035;-82
2022/11/07 03:24:31;;;;;;;24.55;5.10;;;13.00;99.90;;;12.26;100.00;100779.81;4075512;29;20075;-82
2022/11/07 03:26:32;;;;;;;23.15;4.68;;;13.00;99.90;;;12.31;100.00;100785.44;4075266;29;20032;-82
2022/11/07 03:28:33;;;;;;;26.58;4.15;;;13.00;99.90;;;12.35;100.00;100780.66;4075228;29;20084;-82
2022/11/07 03:30:34;;;;;;;24.98;4.28;;;13.10;99.90;;;12.42;100.00;100784.28;4075588;29;20048;-82
2022/11/07 03:32:35;;;;;;;26.33;3.30;;;13.20;99.90;;;12.46;100.00;100785.59;4089757;29;20047;-82
2022/11/07 03:34:36;;;;;;;33.40;5.60;;;13.20;99.90;;;12.53;100.00;100773.34;4090854;29;20377;-82
2022/11/07 03:36:37;;;;;;;27.23;3.90;;;13.30;99.90;;;12.60;100.00;100782.28;4089667;29;20027;-82
2022/11/07 03:38:38;;;;;;;25.20;4.57;;;13.30;99.90;;;12.64;100.00;100783.59;4090778;29;20075;-82
2022/11/07 03:40:39;;;;;;;24.23;5.47;;;13.40;99.90;;;12.64;100.00;100780.94;4090848;29;20059;-82
2022/11/07 03:42:44;;;;;;;28.58;4.38;;;13.40;99.90;;;12.61;100.00;100776.81;4090775;29;20041;-82
2022/11/07 03:44:44;;;;;;;24.92;3.80;;;13.40;99.90;;;12.61;100.00;100783.91;4074924;29;20066;-82
2022/11/07 03:46:45;;;;;;;30.92;5.18;;;13.40;99.90;;;12.63;100.00;100776.66;4105126;29;20023;-82
2022/11/07 03:48:46;;;;;;;20.83;4.47;;;13.40;99.90;;;12.61;100.00;100779.47;4075980;29;20032;-82
2022/11/07 03:50:47;;;;;;;31.08;5.43;;;13.40;99.90;;;12.70;100.00;100789.03;4089511;29;20024;-81
2022/11/07 03:52:48;;;;;;;25.15;4.80;;;13.40;99.90;;;12.70;100.00;100764.38;4089446;29;20039;-82
2022/11/07 03:54:49;;;;;;;25.00;4.45;;;13.50;99.90;;;12.75;100.00;100767.38;4089250;29;20098;-82
2022/11/07 03:56:50;;;;;;;26.05;4.72;;;13.50;99.90;;;12.76;100.00;100769.00;4089342;29;20036;-82
2022/11/07 03:58:50;;;;;;;29.88;4.43;;;13.60;99.90;;;12.82;100.00;100770.13;4090545;29;20452;-82
2022/11/07 04:00:52;;;;;;;27.17;5.25;;;13.60;99.90;;;12.81;100.00;100764.03;4090270;29;20027;-82
2022/11/07 04:02:52;;;;;;;23.45;4.60;;;13.60;99.90;;;12.85;100.00;100769.81;4090541;29;20028;-82
2022/11/07 04:04:53;;;;;;;18.05;3.60;;;13.60;99.90;;;12.86;100.00;100764.34;4089642;29;20039;-82
2022/11/07 04:06:54;;;;;;;23.98;4.10;;;13.60;99.90;;;12.88;100.00;100765.00;4090385;29;20035;-82
2022/11/07 04:08:55;;;;;;;25.48;3.70;;;13.60;99.90;;;12.95;100.00;100759.84;4089247;29;20032;-82
2022/11/07 04:10:56;;;;;;;25.17;5.05;;;13.70;99.90;;;12.90;100.00;100756.91;4073519;29;20120;-82
2022/11/07 04:17:36;;;;;;;21.77;4.10;;;13.70;99.90;;;12.88;100.00;100746.47;4089177;29;20070;-82
2022/11/07 04:19:37;;;;;;;34.80;6.40;;;13.70;99.90;;;12.85;100.00;100736.22;4089090;29;20028;-82
2022/11/07 04:21:37;;;;;;;35.78;5.13;;;13.70;99.90;;;12.91;100.00;100738.19;4072931;29;20420;-82
2022/11/07 04:23:38;;;;;;;24.45;4.93;;;13.60;99.90;;;12.87;100.00;100736.91;4089322;29;20079;-82
2022/11/07 04:27:58;;;;;;;22.25;4.07;;;13.70;99.90;;;12.94;100.00;100726.41;4098089;29;20137;-81
2022/11/07 04:32:24;;;;;;;23.65;4.85;;;13.60;99.90;;;12.84;100.00;100717.88;4102380;28;20103;-82
2022/11/07 04:34:25;;;;;;;25.77;3.63;;;13.60;99.90;;;12.85;100.00;100725.63;4079159;29;20036;-82
2022/11/07 04:36:26;;;;;;;33.42;6.28;;;13.70;99.90;;;12.89;100.00;100745.47;4090128;29;20488;-82
2022/11/07 04:38:27;;;;;;;28.35;5.90;;;13.70;99.90;;;12.96;100.00;100751.72;4089783;29;20046;-82
2022/11/07 04:40:29;;;;;;;29.25;5.28;;;13.70;99.90;;;13.04;100.00;100738.47;4088694;29;20043;-82
2022/11/07 04:42:30;;;;;;;16.40;5.00;;;13.80;99.90;;;13.04;100.00;100746.41;4088818;29;20040;-82
2022/11/07 04:44:31;;;;;;;20.30;3.28;;;13.80;99.90;;;13.06;100.00;100739.13;4074654;29;20036;-82
2022/11/07 04:46:32;;;;;;;23.35;5.35;;;13.80;99.90;;;12.95;100.00;100744.78;4089846;29;20045;-82
2022/11/07 04:48:33;;;;;;;17.92;3.72;;;13.70;99.90;;;12.81;100.00;100737.56;4072688;29;20472;-82
2022/11/07 04:50:33;;;;;;;20.88;3.28;;;13.70;99.90;;;12.82;100.00;100733.06;4090010;29;20031;-82
2022/11/07 04:52:35;;;;;;;12.35;2.05;;;13.60;99.90;;;12.75;100.00;100739.06;4089787;29;20028;-82
2022/11/07 04:54:36;;;;;;;11.10;2.88;;;13.60;99.90;;;12.68;100.00;100731.97;4089759;29;20023;-82
2022/11/07 04:56:36;;;;;;;7.13;2.10;;;13.50;99.90;;;12.72;100.00;100741.25;4089526;29;20039;-82
2022/11/07 04:58:37;;;;;;;7.80;2.15;;;13.50;99.90;;;12.69;100.00;100742.38;4089704;29;20411;-82
2022/11/07 05:00:38;;;;;;;13.00;2.30;;;13.50;99.90;;;12.64;100.00;100733.31;4088244;29;20055;-82
2022/11/07 05:02:39;;;;;;;16.52;2.28;;;13.50;99.90;;;12.62;100.00;100735.31;4088466;29;20035;-82
2022/11/07 05:04:40;;;;;;;9.25;2.53;;;13.40;99.90;;;12.67;100.00;100743.53;4089447;29;20032;-82
2022/11/07 05:06:41;;;;;;;16.27;2.67;;;13.40;99.90;;;12.68;100.00;100737.28;4088287;29;20040;-82
2022/11/07 05:08:42;;;;;;;15.10;2.53;;;13.50;99.90;;;12.68;100.00;100731.97;4089685;29;20035;-82
2022/11/07 05:10:43;;;;;;;10.15;2.35;;;13.40;99.90;;;12.67;100.00;100738.25;4089519;29;20047;-82
2022/11/07 05:12:44;;;;;;;8.82;2.17;;;13.40;99.90;;;12.65;100.00;100734.97;4088016;29;20480;-81
2022/11/07 05:14:45;;;;;;;13.82;1.95;;;13.40;99.90;;;12.64;100.00;100730.66;4088040;29;20047;-82
2022/11/07 05:16:48;;;;;;;7.32;1.92;;;13.40;99.90;;;12.58;100.00;100726.03;4088161;29;20039;-82
2022/11/07 05:18:49;;;;;;;12.32;2.13;;;13.40;99.90;;;12.60;100.00;100730.16;4088189;29;20028;-82
2022/11/07 05:20:50;;;;;;;14.60;2.08;;;13.40;99.90;;;12.58;100.00;100733.97;4088234;29;20038;-82
2022/11/07 05:25:10;;;;;;;17.75;2.63;;;13.30;99.90;;;12.53;100.00;100713.31;4089136;29;20094;-82
2022/11/07 05:27:21;;;;;;;15.23;2.83;;;13.30;99.90;;;12.63;100.00;100721.09;4087824;29;20024;-81
2022/11/07 05:29:22;;;;;;;16.38;3.78;;;13.30;99.90;;;12.57;100.00;100721.75;4087949;29;20551;-82
2022/11/07 05:31:22;;;;;;;10.07;2.70;;;13.30;99.90;;;12.54;100.00;100725.56;4088874;29;20113;-82
2022/11/07 05:33:23;;;;;;;14.75;2.40;;;13.30;99.90;;;12.42;100.00;100723.44;4087893;29;20032;-82
2022/11/07 05:35:24;;;;;;;11.40;2.88;;;13.20;99.90;;;12.37;100.00;100723.09;4088917;29;20428;-82
2022/11/07 05:37:25;;;;;;;17.85;3.55;;;13.20;99.90;;;12.33;100.00;100725.28;4072116;29;20035;-82
2022/11/07 05:39:26;;;;;;;12.68;2.05;;;13.10;99.90;;;12.29;100.00;100720.47;4089045;29;20023;-82
2022/11/07 05:41:27;;;;;;;13.80;2.38;;;13.00;99.90;;;12.26;100.00;100721.66;4088998;29;20461;-82
2022/11/07 05:43:27;;;;;;;13.13;2.00;;;13.00;99.90;;;12.21;100.00;100719.47;4088796;29;20027;-82
2022/11/07 05:45:30;;;;;;;10.32;1.75;;;13.00;99.90;;;12.14;100.00;100721.16;4089635;29;20516;-82
2022/11/07 05:47:31;;;;;;;9.20;2.00;;;13.00;99.90;;;12.19;100.00;100721.47;4072242;29;20080;-82
2022/11/07 05:49:32;;;;;;;15.23;3.08;;;12.90;99.90;;;12.13;100.00;100716.03;4087841;29;20034;-82
2022/11/07 05:51:33;;;;;;;11.15;2.40;;;12.90;99.90;;;12.21;100.00;100719.47;4087791;29;20023;-82
2022/11/07 05:53:33;;;;;;;14.63;2.05;;;12.90;99.90;;;12.13;100.00;100711.56;4089292;29;20024;-82
2022/11/07 05:55:34;;;;;;;17.35;2.58;;;12.90;99.90;;;12.16;100.00;100708.59;4105488;28;20203;-82
2022/11/07 05:57:35;;;;;;;15.38;2.85;;;12.90;99.90;;;12.11;100.00;100713.56;4087695;29;20059;-82
2022/11/07 05:59:36;;;;;;;13.02;3.40;;;12.90;99.90;;;12.20;100.00;100715.22;4088607;29;20027;-82
2022/11/07 06:01:37;;;;;;;13.23;2.55;;;12.90;99.90;;;12.11;100.00;100707.44;4088883;29;20035;-82
2022/11/07 06:03:38;;;;;;;14.70;2.63;;;12.90;99.90;;;12.24;100.00;100718.34;4088717;29;20035;-82
2022/11/07 06:05:41;;;;;;;12.77;2.67;;;13.00;99.90;;;12.34;100.00;100715.50;4071595;29;20571;-83
2022/11/07 06:07:42;;;;;;;15.15;2.58;;;13.00;99.90;;;12.51;100.00;100725.09;4103184;29;20051;-82
2022/11/07 06:09:43;;;;;;;19.15;2.95;;;13.20;99.90;;;12.53;100.00;100729.19;4088682;29;20020;-82
2022/11/07 06:11:43;;;;;;;22.65;3.35;;;13.30;99.90;;;12.64;100.00;100733.31;4088617;29;20024;-82
2022/11/07 06:13:44;;;;;;;13.73;3.13;;;13.30;99.90;;;12.70;100.00;100728.16;4103137;29;20034;-82
2022/11/07 06:15:46;;;;;;;17.65;3.50;;;13.40;99.90;;;12.76;100.00;100734.59;4071265;29;20032;-82
2022/11/07 06:17:46;;;;;;;23.38;4.50;;;13.50;99.90;;;12.80;100.00;100730.63;4088509;29;20031;-82
2022/11/07 06:19:47;;;;;;;17.13;2.88;;;13.50;99.90;;;12.84;100.00;100741.69;4088882;29;20024;-82
2022/11/07 06:21:48;;;;;;;23.38;4.68;;;13.60;99.90;;;12.90;100.00;100756.91;4088625;29;20032;-82
2022/11/07 06:23:49;;;;;;;17.05;3.10;;;13.70;99.90;;;13.02;100.00;100761.63;4102905;29;20053;-82
2022/11/07 06:25:50;;;;;;;16.70;2.90;;;13.70;99.90;;;12.92;100.00;100766.31;4088337;29;20480;-82
2022/11/07 06:27:51;;;;;;;13.52;1.90;;;13.70;99.90;;;12.82;100.00;100760.38;4103129;29;20398;-82
2022/11/07 06:29:52;;;;;;;8.43;1.33;;;13.60;99.90;;;12.69;100.00;100755.59;4102709;29;20134;-82
2022/11/07 06:31:54;;;;;;;9.65;1.35;;;13.60;99.90;;;12.57;100.00;100754.31;4086979;29;20583;-82
2022/11/07 06:33:55;;;;;;;10.43;1.65;;;13.50;99.90;;;12.49;100.00;100759.63;4092188;29;20043;-82
2022/11/07 06:36:07;;;;;;;6.13;1.50;;;13.40;99.90;;;12.49;100.00;100769.38;4097797;29;20039;-82
2022/11/07 06:38:10;;;;;;;5.40;1.45;;;13.30;99.90;;;12.43;100.00;100764.75;4088411;29;20027;-82
2022/11/07 06:40:12;;;;;;;10.60;1.93;;;13.30;99.90;;;12.35;100.00;100762.13;4071229;29;20032;-82
2022/11/07 06:42:12;;;;;;;9.27;1.58;;;13.20;99.90;;;12.34;100.00;100771.88;4087188;29;20283;-82
2022/11/07 06:44:14;;;;;;;9.32;1.88;;;13.20;99.90;;;12.31;100.00;100772.22;4088069;29;20038;-82
2022/11/07 06:46:16;;;;;;;10.60;1.85;;;13.10;99.90;;;12.23;100.00;100774.03;4087408;29;20040;-82
2022/11/07 06:48:17;;;;;;;14.13;2.08;;;13.10;99.90;;;12.31;100.00;100779.31;4086837;29;20577;-82
2022/11/07 06:50:18;;;;;;;10.70;1.48;;;13.00;99.90;;;12.18;100.00;100767.41;4086891;29;20043;-82
2022/11/07 06:52:19;;;;;;;11.32;2.33;;;13.00;99.90;;;12.15;100.00;100741.34;4086930;29;20028;-82
2022/11/07 06:54:20;;;;;;;8.30;1.88;;;13.00;99.90;;;12.17;100.00;100760.50;4087957;29;20059;-82
2022/11/07 06:56:20;;;;;;;10.73;2.33;;;13.00;99.90;;;12.13;100.00;100759.16;4088145;29;20043;-82
2022/11/07 06:58:22;;;;;;;8.50;1.65;;;12.90;99.90;;;12.11;100.00;100750.56;4088107;29;20043;-82
2022/11/07 07:00:22;;;;;;;9.95;3.00;;;12.90;99.90;;;12.14;100.00;100760.81;4088105;29;20028;-82
2022/11/07 07:02:23;;;;;;;14.15;2.35;;;12.80;99.90;;;12.03;100.00;100761.16;4086780;29;20028;-81
2022/11/07 07:04:24;;;;;;;6.07;1.15;;;12.80;99.90;;;11.87;100.00;100740.00;4088150;29;20036;-83
2022/11/07 07:06:25;;;;;;;7.93;1.15;;;12.70;99.90;;;11.90;100.00;100754.69;4087799;29;20384;-82
2022/11/07 07:08:26;;;;;;;11.43;1.55;;;12.70;99.90;;;11.75;100.00;100754.53;4086924;29;20119;-82
2022/11/07 07:10:27;;;;;;;8.27;1.50;;;12.60;99.90;;;11.74;100.00;100758.13;4088217;29;20110;-81
2022/11/07 07:12:28;;;;;;;5.32;1.40;;;12.50;99.90;;;11.68;100.00;100757.97;4087971;29;20056;-80
2022/11/07 07:14:29;;;;;;;10.70;1.35;;;12.50;99.90;;;11.66;100.00;100761.56;4086471;29;20579;-80
2022/11/07 07:16:30;;;;;;;11.00;1.75;;;12.40;99.90;;;11.59;100.00;100759.72;4086875;29;20028;-81
2022/11/07 07:18:32;;;;;;;12.57;2.35;;;12.40;99.90;;;11.55;100.00;100769.00;4086922;29;20614;-81
2022/11/07 07:20:33;;;;;;;8.15;2.10;;;12.40;99.90;;;11.52;100.00;100777.22;4087934;29;20083;-80
2022/11/07 07:22:33;;;;;;;15.40;1.95;;;12.30;99.90;;;11.54;100.00;100772.59;4087939;29;20032;-81
2022/11/07 07:24:34;;;;;;;11.85;2.92;;;12.30;99.90;;;11.56;100.00;100781.19;4086900;29;20034;-81
2022/11/07 07:26:35;;;;;;;9.40;2.60;;;12.30;99.90;;;11.55;100.00;100784.84;4094959;29;20496;-80
2022/11/07 07:28:36;;;;;;;6.97;2.08;;;12.30;99.90;;;11.51;100.00;100784.31;4087868;29;20111;-80
2022/11/07 07:30:38;;;;;;;9.25;1.60;;;12.30;99.90;;;11.48;100.00;100784.66;4087265;29;20048;-82
2022/11/07 07:32:38;;;;;;;11.52;2.03;;;12.30;99.90;;;11.47;100.00;100784.78;4086629;29;20460;-82
2022/11/07 07:34:39;;;;;;;13.38;2.13;;;12.30;99.90;;;11.56;100.00;100789.94;4086872;29;20031;-82
2022/11/07 07:36:40;;;;;;;11.45;1.73;;;12.30;99.90;;;11.51;100.00;100791.41;4086488;29;20024;-82
2022/11/07 07:38:41;;;;;;;11.57;2.42;;;12.30;99.90;;;11.47;100.00;100785.63;4087644;29;20040;-82
2022/11/07 07:40:42;;;;;;;17.38;3.85;;;12.30;99.90;;;11.55;100.00;100801.53;4087832;29;20068;-82
2022/11/07 07:42:43;;;;;;;16.63;2.97;;;12.30;99.90;;;11.55;100.00;100806.81;4086832;29;20028;-82
2022/11/07 07:44:44;;;;;;;15.43;2.22;;;12.30;99.90;;;11.61;100.00;100815.91;4087131;29;20091;-82
2022/11/07 07:46:45;;;;;;;16.00;3.03;;;12.40;99.90;;;11.65;100.00;100811.94;4101995;29;20460;-82
2022/11/07 07:48:46;;;;;;;14.32;2.10;;;12.40;99.90;;;11.76;100.00;100816.97;4086580;29;20028;-82
2022/11/07 07:50:48;;;;;;;13.38;2.58;;;12.50;99.90;;;11.81;100.00;100821.75;4087967;29;20028;-82
2022/11/07 07:52:56;;;;;;;15.07;2.38;;;12.60;99.90;;;11.96;100.00;100836.00;4104838;28;20098;-82
2022/11/07 07:54:57;;;;;;;18.20;3.05;;;12.60;99.90;;;12.11;100.00;100832.56;4102268;29;20031;-82
2022/11/07 07:56:57;;;;;;;16.67;2.42;;;12.70;99.90;;;12.18;100.00;100822.94;4102397;28;20487;-81
2022/11/07 07:58:58;;;;;;;15.45;3.00;;;12.90;99.90;;;12.29;100.00;100829.75;4090280;29;20024;-82
2022/11/07 08:00:59;;;;;;;13.85;2.80;;;13.00;99.90;;;12.37;100.00;100832.38;4105282;29;20027;-81
2022/11/07 08:03:09;;;;;;;17.15;3.00;;;13.10;99.90;;;12.47;100.00;100830.41;4090277;29;20031;-82
2022/11/07 08:05:15;;;;;;;17.30;3.42;;;13.20;99.90;;;12.62;100.00;100836.69;4104927;29;20027;-82
2022/11/07 08:07:15;;;;;;;15.43;3.20;;;13.30;99.90;;;12.66;100.00;100832.69;4105062;29;20471;-81
2022/11/07 08:09:16;;;;;;;19.15;3.67;;;13.40;99.90;;;12.76;100.00;100829.88;4105021;29;20027;-82
2022/11/07 08:11:17;;;;;;;18.58;3.58;;;13.50;99.90;;;12.87;100.00;100824.25;4089117;29;20032;-81
2022/11/07 08:13:23;;;;;;;20.23;3.28;;;13.60;99.90;;;13.02;100.00;100834.97;4105058;29;20074;-81
2022/11/07 08:15:24;;;;;;;18.35;3.33;;;13.70;99.90;;;13.13;100.00;100829.34;4104651;29;20023;-81
2022/11/07 08:17:25;;;;;;;20.90;3.70;;;13.80;99.90;;;13.16;100.00;100821.06;4090290;29;20103;-81
2022/11/07 08:19:26;;;;;;;20.17;3.53;;;13.90;99.90;;;13.28;100.00;100825.81;4090297;29;20036;-81
2022/11/07 08:21:27;;;;;;;18.23;3.72;;;13.90;99.90;;;13.32;100.00;100816.50;4090264;29;20559;-81
2022/11/07 08:23:29;;;;;;;18.00;3.55;;;14.00;99.90;;;13.26;100.00;100806.59;4090211;29;20459;-81
2022/11/07 08:25:31;;;;;;;23.75;3.38;;;14.00;99.90;;;13.38;100.00;100824.78;4090133;29;20028;-81
2022/11/07 08:27:32;;;;;;;25.23;4.65;;;14.00;99.90;;;13.40;100.00;100823.63;4104776;29;20027;-82
2022/11/07 08:29:33;;;;;;;22.42;4.45;;;14.10;99.90;;;13.44;100.00;100818.81;4089827;29;20026;-80
2022/11/07 08:31:34;;;;;;;18.73;3.33;;;14.10;99.90;;;13.56;100.00;100823.53;4113776;28;20386;-81